Terminal Aerodrome Forecast
Issued by NWS

Home | Current Version | Previous Version | Text Only | Print | Product List | Glossary On
Versions: 1 2 3 4 5 6 7 8 9 10 11 12 13 14 15 16 17 18 19 20 21 22 23 24 25 26
000
FTUS46 KLOX 251600 AAC
TAFSBA
TAF AMD
KSBA 251600Z 2516/2612 VRB05KT 3SM BR OVC004
     FM251700 11006KT 5SM BR BKN005
     FM251900 18006KT P6SM SCT008
     FM252000 23008KT P6SM FEW015
     FM260400 VRB05KT 6SM BR BKN005
     FM260700 VRB05KT 2SM BR OVC003=

USA.gov is the U.S. government's official web portal to all federal, state and local government web resources and services.